sensor_id;sensor_type;location;lat;lon;timestamp;P1;durP1;ratioP1;P2;durP2;ratioP2
84121;SDS011;74217;51.106;17.084;2024-01-15T00:02:05;11.88;;;6.68;;
84121;SDS011;74217;51.106;17.084;2024-01-15T00:04:55;9.70;;;7.53;;
84121;SDS011;74217;51.106;17.084;2024-01-15T00:07:40;11.07;;;7.57;;
84121;SDS011;74217;51.106;17.084;2024-01-15T00:10:29;12.75;;;9.05;;
84121;SDS011;74217;51.106;17.084;2024-01-15T00:13:14;9.15;;;6.70;;
84121;SDS011;74217;51.106;17.084;2024-01-15T00:16:04;10.48;;;6.55;;
84121;SDS011;74217;51.106;17.084;2024-01-15T00:18:49;12.65;;;7.38;;
84121;SDS011;74217;51.106;17.084;2024-01-15T00:21:38;12.23;;;7.40;;
84121;SDS011;74217;51.106;17.084;2024-01-15T00:24:24;8.38;;;6.13;;
84121;SDS011;74217;51.106;17.084;2024-01-15T00:27:15;12.38;;;7.75;;
84121;SDS011;74217;51.106;17.084;2024-01-15T00:30:00;9.57;;;7.55;;
84121;SDS011;74217;51.106;17.084;2024-01-15T00:32:49;9.98;;;6.30;;
84121;SDS011;74217;51.106;17.084;2024-01-15T00:35:34;13.13;;;7.00;;
84121;SDS011;74217;51.106;17.084;2024-01-15T00:38:23;10.23;;;6.70;;
84121;SDS011;74217;51.106;17.084;2024-01-15T00:41:09;10.98;;;7.55;;
84121;SDS011;74217;51.106;17.084;2024-01-15T00:44:00;9.82;;;7.72;;
84121;SDS011;74217;51.106;17.084;2024-01-15T00:46:45;10.82;;;6.88;;
84121;SDS011;74217;51.106;17.084;2024-01-15T00:49:34;11.10;;;7.25;;
84121;SDS011;74217;51.106;17.084;2024-01-15T00:52:19;14.35;;;9.50;;
84121;SDS011;74217;51.106;17.084;2024-01-15T00:55:09;9.35;;;6.65;;
84121;SDS011;74217;51.106;17.084;2024-01-15T00:57:54;10.38;;;6.88;;
84121;SDS011;74217;51.106;17.084;2024-01-15T01:00:44;15.20;;;12.95;;
84121;SDS011;74217;51.106;17.084;2024-01-15T01:03:29;8.40;;;6.97;;
84121;SDS011;74217;51.106;17.084;2024-01-15T01:06:18;11.27;;;8.23;;
84121;SDS011;74217;51.106;17.084;2024-01-15T01:09:03;9.93;;;7.20;;
84121;SDS011;74217;51.106;17.084;2024-01-15T01:11:54;10.65;;;6.97;;
84121;SDS011;74217;51.106;17.084;2024-01-15T01:14:39;12.23;;;7.97;;
84121;SDS011;74217;51.106;17.084;2024-01-15T01:17:31;10.52;;;7.05;;
84121;SDS011;74217;51.106;17.084;2024-01-15T01:20:16;11.65;;;9.50;;
84121;SDS011;74217;51.106;17.084;2024-01-15T01:23:05;8.65;;;7.35;;
84121;SDS011;74217;51.106;17.084;2024-01-15T01:25:50;10.82;;;8.07;;
84121;SDS011;74217;51.106;17.084;2024-01-15T01:28:40;12.27;;;9.63;;
84121;SDS011;74217;51.106;17.084;2024-01-15T01:31:24;9.90;;;7.30;;
84121;SDS011;74217;51.106;17.084;2024-01-15T01:34:16;14.13;;;8.45;;
84121;SDS011;74217;51.106;17.084;2024-01-15T01:37:00;11.15;;;8.13;;
84121;SDS011;74217;51.106;17.084;2024-01-15T01:39:50;10.45;;;7.90;;
84121;SDS011;74217;51.106;17.084;2024-01-15T01:42:34;12.88;;;9.68;;
84121;SDS011;74217;51.106;17.084;2024-01-15T01:45:25;12.52;;;8.70;;
84121;SDS011;74217;51.106;17.084;2024-01-15T01:48:09;12.95;;;8.45;;
84121;SDS011;74217;51.106;17.084;2024-01-15T01:51:02;12.50;;;11.18;;
84121;SDS011;74217;51.106;17.084;2024-01-15T01:53:48;11.32;;;7.97;;
84121;SDS011;74217;51.106;17.084;2024-01-15T01:56:38;13.18;;;9.00;;
84121;SDS011;74217;51.106;17.084;2024-01-15T01:59:23;13.65;;;9.55;;
84121;SDS011;74217;51.106;17.084;2024-01-15T02:02:14;13.80;;;8.43;;
84121;SDS011;74217;51.106;17.084;2024-01-15T02:04:59;11.45;;;9.55;;
84121;SDS011;74217;51.106;17.084;2024-01-15T02:07:51;11.55;;;6.75;;
84121;SDS011;74217;51.106;17.084;2024-01-15T02:10:36;12.85;;;8.13;;
84121;SDS011;74217;51.106;17.084;2024-01-15T02:13:28;11.77;;;8.15;;
84121;SDS011;74217;51.106;17.084;2024-01-15T02:16:12;14.45;;;9.93;;
84121;SDS011;74217;51.106;17.084;2024-01-15T02:19:04;11.55;;;8.48;;
84121;SDS011;74217;51.106;17.084;2024-01-15T02:21:49;12.82;;;9.02;;
84121;SDS011;74217;51.106;17.084;2024-01-15T02:24:39;12.73;;;9.68;;
84121;SDS011;74217;51.106;17.084;2024-01-15T02:27:25;13.80;;;9.43;;
84121;SDS011;74217;51.106;17.084;2024-01-15T02:30:14;14.80;;;8.32;;
84121;SDS011;74217;51.106;17.084;2024-01-15T02:33:00;15.40;;;9.57;;
84121;SDS011;74217;51.106;17.084;2024-01-15T02:35:51;12.82;;;8.82;;
84121;SDS011;74217;51.106;17.084;2024-01-15T02:38:36;12.20;;;8.65;;
84121;SDS011;74217;51.106;17.084;2024-01-15T02:41:28;13.73;;;9.00;;
84121;SDS011;74217;51.106;17.084;2024-01-15T02:44:13;12.43;;;9.05;;
84121;SDS011;74217;51.106;17.084;2024-01-15T02:47:04;12.18;;;8.38;;
84121;SDS011;74217;51.106;17.084;2024-01-15T02:49:49;11.40;;;8.02;;
84121;SDS011;74217;51.106;17.084;2024-01-15T02:52:38;12.38;;;8.05;;
84121;SDS011;74217;51.106;17.084;2024-01-15T02:55:23;15.20;;;9.30;;
84121;SDS011;74217;51.106;17.084;2024-01-15T02:58:15;12.50;;;8.05;;
84121;SDS011;74217;51.106;17.084;2024-01-15T03:01:00;11.50;;;7.80;;
84121;SDS011;74217;51.106;17.084;2024-01-15T03:03:50;10.90;;;7.97;;
84121;SDS011;74217;51.106;17.084;2024-01-15T03:06:35;9.68;;;6.68;;
84121;SDS011;74217;51.106;17.084;2024-01-15T03:09:24;10.63;;;7.05;;
84121;SDS011;74217;51.106;17.084;2024-01-15T03:12:09;11.10;;;7.63;;
84121;SDS011;74217;51.106;17.084;2024-01-15T03:15:00;7.82;;;7.03;;
84121;SDS011;74217;51.106;17.084;2024-01-15T03:17:45;10.07;;;7.50;;
84121;SDS011;74217;51.106;17.084;2024-01-15T03:20:35;11.18;;;7.88;;
84121;SDS011;74217;51.106;17.084;2024-01-15T03:23:19;10.07;;;7.60;;
84121;SDS011;74217;51.106;17.084;2024-01-15T03:26:10;10.23;;;7.40;;
84121;SDS011;74217;51.106;17.084;2024-01-15T03:28:55;9.70;;;7.03;;
84121;SDS011;74217;51.106;17.084;2024-01-15T03:31:47;10.77;;;7.18;;
84121;SDS011;74217;51.106;17.084;2024-01-15T03:34:32;10.63;;;6.90;;
84121;SDS011;74217;51.106;17.084;2024-01-15T03:37:21;7.90;;;6.38;;
84121;SDS011;74217;51.106;17.084;2024-01-15T03:40:06;7.65;;;6.47;;
84121;SDS011;74217;51.106;17.084;2024-01-15T03:42:57;7.47;;;6.43;;
84121;SDS011;74217;51.106;17.084;2024-01-15T03:45:42;8.57;;;6.63;;
84121;SDS011;74217;51.106;17.084;2024-01-15T03:48:34;9.02;;;7.35;;
84121;SDS011;74217;51.106;17.084;2024-01-15T03:51:19;7.80;;;6.22;;
84121;SDS011;74217;51.106;17.084;2024-01-15T03:54:08;9.25;;;6.47;;
84121;SDS011;74217;51.106;17.084;2024-01-15T03:56:53;9.40;;;8.10;;
84121;SDS011;74217;51.106;17.084;2024-01-15T03:59:44;9.43;;;6.97;;
84121;SDS011;74217;51.106;17.084;2024-01-15T04:02:31;9.35;;;6.70;;
84121;SDS011;74217;51.106;17.084;2024-01-15T04:05:22;9.95;;;6.18;;
84121;SDS011;74217;51.106;17.084;2024-01-15T04:08:07;8.68;;;5.40;;
84121;SDS011;74217;51.106;17.084;2024-01-15T04:10:57;8.68;;;7.10;;
84121;SDS011;74217;51.106;17.084;2024-01-15T04:13:41;9.15;;;6.10;;
84121;SDS011;74217;51.106;17.084;2024-01-15T04:16:31;10.82;;;6.47;;
84121;SDS011;74217;51.106;17.084;2024-01-15T04:19:16;11.93;;;7.78;;
84121;SDS011;74217;51.106;17.084;2024-01-15T04:22:08;9.73;;;6.45;;
84121;SDS011;74217;51.106;17.084;2024-01-15T04:24:53;9.52;;;6.28;;
84121;SDS011;74217;51.106;17.084;2024-01-15T04:27:42;9.45;;;6.70;;
84121;SDS011;74217;51.106;17.084;2024-01-15T04:30:27;7.90;;;5.40;;
84121;SDS011;74217;51.106;17.084;2024-01-15T04:33:16;10.82;;;5.97;;
84121;SDS011;74217;51.106;17.084;2024-01-15T04:36:01;10.55;;;5.53;;
84121;SDS011;74217;51.106;17.084;2024-01-15T04:38:52;9.13;;;7.15;;
84121;SDS011;74217;51.106;17.084;2024-01-15T04:41:37;8.13;;;6.00;;
84121;SDS011;74217;51.106;17.084;2024-01-15T04:44:28;7.95;;;6.20;;
84121;SDS011;74217;51.106;17.084;2024-01-15T04:47:13;8.10;;;6.50;;
84121;SDS011;74217;51.106;17.084;2024-01-15T04:50:04;8.15;;;6.38;;
84121;SDS011;74217;51.106;17.084;2024-01-15T04:52:49;9.35;;;6.28;;
84121;SDS011;74217;51.106;17.084;2024-01-15T04:55:39;9.57;;;5.78;;
84121;SDS011;74217;51.106;17.084;2024-01-15T04:58:24;13.32;;;7.50;;
84121;SDS011;74217;51.106;17.084;2024-01-15T05:01:15;9.80;;;7.80;;
84121;SDS011;74217;51.106;17.084;2024-01-15T05:04:00;10.93;;;6.82;;
84121;SDS011;74217;51.106;17.084;2024-01-15T05:06:52;9.35;;;6.60;;
84121;SDS011;74217;51.106;17.084;2024-01-15T05:09:38;10.10;;;7.03;;
84121;SDS011;74217;51.106;17.084;2024-01-15T05:12:29;8.05;;;6.65;;
84121;SDS011;74217;51.106;17.084;2024-01-15T05:15:14;10.73;;;6.75;;
84121;SDS011;74217;51.106;17.084;2024-01-15T05:18:03;8.88;;;5.88;;
84121;SDS011;74217;51.106;17.084;2024-01-15T05:20:48;8.90;;;6.32;;
84121;SDS011;74217;51.106;17.084;2024-01-15T05:23:39;8.38;;;5.40;;
84121;SDS011;74217;51.106;17.084;2024-01-15T05:26:24;7.80;;;6.07;;
84121;SDS011;74217;51.106;17.084;2024-01-15T05:29:16;10.52;;;5.82;;
84121;SDS011;74217;51.106;17.084;2024-01-15T05:32:01;8.63;;;6.38;;
84121;SDS011;74217;51.106;17.084;2024-01-15T05:34:51;8.45;;;6.38;;
84121;SDS011;74217;51.106;17.084;2024-01-15T05:37:36;9.07;;;5.63;;
84121;SDS011;74217;51.106;17.084;2024-01-15T05:40:26;6.75;;;4.63;;
84121;SDS011;74217;51.106;17.084;2024-01-15T05:43:11;7.70;;;6.93;;
84121;SDS011;74217;51.106;17.084;2024-01-15T05:46:01;9.27;;;6.80;;
84121;SDS011;74217;51.106;17.084;2024-01-15T05:48:47;8.45;;;6.05;;
84121;SDS011;74217;51.106;17.084;2024-01-15T05:51:38;6.95;;;5.32;;
84121;SDS011;74217;51.106;17.084;2024-01-15T05:54:23;8.00;;;6.13;;
84121;SDS011;74217;51.106;17.084;2024-01-15T05:57:12;7.50;;;6.88;;
84121;SDS011;74217;51.106;17.084;2024-01-15T05:59:57;8.43;;;6.40;;
84121;SDS011;74217;51.106;17.084;2024-01-15T06:02:46;6.75;;;5.50;;
84121;SDS011;74217;51.106;17.084;2024-01-15T06:05:31;7.38;;;5.68;;
84121;SDS011;74217;51.106;17.084;2024-01-15T06:08:20;8.82;;;6.75;;
84121;SDS011;74217;51.106;17.084;2024-01-15T06:11:06;7.30;;;5.40;;
84121;SDS011;74217;51.106;17.084;2024-01-15T06:13:54;5.97;;;4.18;;
84121;SDS011;74217;51.106;17.084;2024-01-15T06:16:39;6.72;;;5.32;;
84121;SDS011;74217;51.106;17.084;2024-01-15T06:19:30;10.20;;;5.30;;
84121;SDS011;74217;51.106;17.084;2024-01-15T06:22:15;8.02;;;6.53;;
84121;SDS011;74217;51.106;17.084;2024-01-15T06:25:06;6.40;;;5.78;;
84121;SDS011;74217;51.106;17.084;2024-01-15T06:27:51;8.05;;;5.32;;
84121;SDS011;74217;51.106;17.084;2024-01-15T06:30:43;6.70;;;5.60;;
84121;SDS011;74217;51.106;17.084;2024-01-15T06:33:27;7.93;;;5.43;;
84121;SDS011;74217;51.106;17.084;2024-01-15T06:36:17;7.63;;;5.90;;
84121;SDS011;74217;51.106;17.084;2024-01-15T06:39:01;6.75;;;5.07;;
84121;SDS011;74217;51.106;17.084;2024-01-15T06:41:51;8.38;;;6.35;;
84121;SDS011;74217;51.106;17.084;2024-01-15T06:44:36;7.25;;;5.63;;
84121;SDS011;74217;51.106;17.084;2024-01-15T06:47:25;7.15;;;5.10;;
84121;SDS011;74217;51.106;17.084;2024-01-15T06:50:10;6.65;;;5.13;;
84121;SDS011;74217;51.106;17.084;2024-01-15T06:53:01;7.25;;;5.55;;
84121;SDS011;74217;51.106;17.084;2024-01-15T06:55:46;10.07;;;7.53;;
84121;SDS011;74217;51.106;17.084;2024-01-15T06:58:37;6.10;;;5.35;;
84121;SDS011;74217;51.106;17.084;2024-01-15T07:01:22;10.68;;;7.13;;
84121;SDS011;74217;51.106;17.084;2024-01-15T07:04:10;8.93;;;5.32;;
84121;SDS011;74217;51.106;17.084;2024-01-15T07:06:55;8.63;;;5.57;;
84121;SDS011;74217;51.106;17.084;2024-01-15T07:09:44;7.43;;;5.40;;
84121;SDS011;74217;51.106;17.084;2024-01-15T07:12:29;7.68;;;5.00;;
84121;SDS011;74217;51.106;17.084;2024-01-15T07:15:18;6.47;;;5.72;;
84121;SDS011;74217;51.106;17.084;2024-01-15T07:18:03;10.80;;;5.35;;
84121;SDS011;74217;51.106;17.084;2024-01-15T07:20:55;12.73;;;6.88;;
84121;SDS011;74217;51.106;17.084;2024-01-15T07:23:40;9.68;;;5.45;;
84121;SDS011;74217;51.106;17.084;2024-01-15T07:26:34;8.95;;;6.15;;
84121;SDS011;74217;51.106;17.084;2024-01-15T07:29:19;9.52;;;5.75;;
84121;SDS011;74217;51.106;17.084;2024-01-15T07:32:08;7.80;;;6.07;;
84121;SDS011;74217;51.106;17.084;2024-01-15T07:34:53;7.22;;;5.60;;
84121;SDS011;74217;51.106;17.084;2024-01-15T07:37:43;8.88;;;6.55;;
84121;SDS011;74217;51.106;17.084;2024-01-15T07:40:28;9.25;;;6.85;;
84121;SDS011;74217;51.106;17.084;2024-01-15T07:43:18;8.75;;;6.78;;
84121;SDS011;74217;51.106;17.084;2024-01-15T07:46:05;7.60;;;6.05;;
84121;SDS011;74217;51.106;17.084;2024-01-15T07:48:57;9.18;;;7.10;;
84121;SDS011;74217;51.106;17.084;2024-01-15T07:51:41;8.48;;;6.07;;
84121;SDS011;74217;51.106;17.084;2024-01-15T07:54:31;7.40;;;6.32;;
84121;SDS011;74217;51.106;17.084;2024-01-15T07:57:17;9.90;;;7.55;;
84121;SDS011;74217;51.106;17.084;2024-01-15T08:00:09;8.65;;;5.93;;
84121;SDS011;74217;51.106;17.084;2024-01-15T08:02:56;9.75;;;6.45;;
84121;SDS011;74217;51.106;17.084;2024-01-15T08:05:46;9.57;;;6.65;;
84121;SDS011;74217;51.106;17.084;2024-01-15T08:08:31;8.70;;;7.30;;
84121;SDS011;74217;51.106;17.084;2024-01-15T08:11:20;8.70;;;6.78;;
84121;SDS011;74217;51.106;17.084;2024-01-15T08:14:05;8.27;;;5.15;;
84121;SDS011;74217;51.106;17.084;2024-01-15T08:16:55;8.13;;;6.40;;
84121;SDS011;74217;51.106;17.084;2024-01-15T08:19:39;7.00;;;6.05;;
84121;SDS011;74217;51.106;17.084;2024-01-15T08:22:31;6.32;;;5.40;;
84121;SDS011;74217;51.106;17.084;2024-01-15T08:25:16;14.02;;;13.00;;
84121;SDS011;74217;51.106;17.084;2024-01-15T08:28:05;7.47;;;5.80;;
84121;SDS011;74217;51.106;17.084;2024-01-15T08:30:50;7.70;;;5.45;;
84121;SDS011;74217;51.106;17.084;2024-01-15T08:33:41;6.57;;;5.40;;
84121;SDS011;74217;51.106;17.084;2024-01-15T08:36:25;8.40;;;5.25;;
84121;SDS011;74217;51.106;17.084;2024-01-15T08:39:20;7.68;;;4.88;;
84121;SDS011;74217;51.106;17.084;2024-01-15T08:42:05;7.60;;;6.47;;
84121;SDS011;74217;51.106;17.084;2024-01-15T08:45:07;6.90;;;5.60;;
84121;SDS011;74217;51.106;17.084;2024-01-15T08:47:52;7.05;;;5.25;;
84121;SDS011;74217;51.106;17.084;2024-01-15T08:50:41;5.75;;;5.15;;
84121;SDS011;74217;51.106;17.084;2024-01-15T08:53:26;6.70;;;4.60;;
84121;SDS011;74217;51.106;17.084;2024-01-15T08:56:15;8.60;;;4.78;;
84121;SDS011;74217;51.106;17.084;2024-01-15T08:59:00;6.88;;;4.63;;
84121;SDS011;74217;51.106;17.084;2024-01-15T09:01:49;6.97;;;4.63;;
84121;SDS011;74217;51.106;17.084;2024-01-15T09:04:35;7.00;;;5.32;;
84121;SDS011;74217;51.106;17.084;2024-01-15T09:07:23;6.18;;;5.20;;
84121;SDS011;74217;51.106;17.084;2024-01-15T09:10:09;8.93;;;4.05;;
84121;SDS011;74217;51.106;17.084;2024-01-15T09:12:59;7.07;;;4.07;;
84121;SDS011;74217;51.106;17.084;2024-01-15T09:15:45;5.32;;;3.88;;
84121;SDS011;74217;51.106;17.084;2024-01-15T09:18:34;5.45;;;3.70;;
84121;SDS011;74217;51.106;17.084;2024-01-15T09:21:19;9.88;;;6.22;;
84121;SDS011;74217;51.106;17.084;2024-01-15T09:24:08;5.38;;;4.43;;
84121;SDS011;74217;51.106;17.084;2024-01-15T09:26:53;7.55;;;4.88;;
84121;SDS011;74217;51.106;17.084;2024-01-15T09:29:44;4.65;;;4.15;;
84121;SDS011;74217;51.106;17.084;2024-01-15T09:32:30;8.70;;;5.78;;
84121;SDS011;74217;51.106;17.084;2024-01-15T09:35:19;5.72;;;4.32;;
84121;SDS011;74217;51.106;17.084;2024-01-15T09:38:04;7.57;;;5.50;;
84121;SDS011;74217;51.106;17.084;2024-01-15T09:40:53;6.20;;;4.07;;
84121;SDS011;74217;51.106;17.084;2024-01-15T09:43:38;4.90;;;3.97;;
84121;SDS011;74217;51.106;17.084;2024-01-15T09:46:27;7.60;;;5.53;;
84121;SDS011;74217;51.106;17.084;2024-01-15T09:49:12;7.82;;;6.30;;
84121;SDS011;74217;51.106;17.084;2024-01-15T09:52:02;9.30;;;5.22;;
84121;SDS011;74217;51.106;17.084;2024-01-15T09:54:48;8.43;;;5.03;;
84121;SDS011;74217;51.106;17.084;2024-01-15T09:57:38;5.70;;;5.15;;
84121;SDS011;74217;51.106;17.084;2024-01-15T10:00:24;6.70;;;3.28;;
84121;SDS011;74217;51.106;17.084;2024-01-15T10:03:13;6.25;;;4.57;;
84121;SDS011;74217;51.106;17.084;2024-01-15T10:05:59;7.38;;;4.40;;
84121;SDS011;74217;51.106;17.084;2024-01-15T10:08:49;6.75;;;5.13;;
84121;SDS011;74217;51.106;17.084;2024-01-15T10:11:35;6.00;;;4.43;;
84121;SDS011;74217;51.106;17.084;2024-01-15T10:14:24;8.60;;;5.10;;
84121;SDS011;74217;51.106;17.084;2024-01-15T10:17:15;5.63;;;5.03;;
84121;SDS011;74217;51.106;17.084;2024-01-15T10:20:07;5.90;;;4.40;;
84121;SDS011;74217;51.106;17.084;2024-01-15T10:22:53;7.28;;;4.45;;
84121;SDS011;74217;51.106;17.084;2024-01-15T10:25:42;8.45;;;4.70;;
84121;SDS011;74217;51.106;17.084;2024-01-15T10:28:27;10.05;;;5.90;;
84121;SDS011;74217;51.106;17.084;2024-01-15T10:31:17;6.55;;;4.43;;
84121;SDS011;74217;51.106;17.084;2024-01-15T10:34:09;5.88;;;3.97;;
84121;SDS011;74217;51.106;17.084;2024-01-15T10:36:59;7.38;;;4.72;;
84121;SDS011;74217;51.106;17.084;2024-01-15T10:39:45;5.13;;;3.95;;
84121;SDS011;74217;51.106;17.084;2024-01-15T10:42:33;6.55;;;4.70;;
84121;SDS011;74217;51.106;17.084;2024-01-15T10:45:18;6.88;;;3.90;;
84121;SDS011;74217;51.106;17.084;2024-01-15T10:48:07;6.43;;;4.03;;
84121;SDS011;74217;51.106;17.084;2024-01-15T10:50:53;6.90;;;4.75;;
84121;SDS011;74217;51.106;17.084;2024-01-15T10:53:42;6.80;;;4.35;;
84121;SDS011;74217;51.106;17.084;2024-01-15T10:56:27;9.55;;;5.25;;
84121;SDS011;74217;51.106;17.084;2024-01-15T10:59:18;6.97;;;4.00;;
84121;SDS011;74217;51.106;17.084;2024-01-15T11:02:05;7.43;;;5.07;;
84121;SDS011;74217;51.106;17.084;2024-01-15T11:04:54;8.50;;;4.85;;
84121;SDS011;74217;51.106;17.084;2024-01-15T11:07:40;6.50;;;4.47;;
84121;SDS011;74217;51.106;17.084;2024-01-15T11:16:18;8.38;;;4.30;;
84121;SDS011;74217;51.106;17.084;2024-01-15T11:19:04;5.25;;;3.20;;
84121;SDS011;74217;51.106;17.084;2024-01-15T11:21:55;7.22;;;4.47;;
84121;SDS011;74217;51.106;17.084;2024-01-15T11:24:40;4.28;;;3.45;;
84121;SDS011;74217;51.106;17.084;2024-01-15T11:27:39;7.57;;;4.03;;
84121;SDS011;74217;51.106;17.084;2024-01-15T11:30:28;6.88;;;4.20;;
84121;SDS011;74217;51.106;17.084;2024-01-15T11:33:32;5.43;;;3.55;;
84121;SDS011;74217;51.106;17.084;2024-01-15T11:36:18;9.02;;;4.63;;
84121;SDS011;74217;51.106;17.084;2024-01-15T11:39:39;7.03;;;4.90;;
84121;SDS011;74217;51.106;17.084;2024-01-15T11:42:13;6.32;;;3.90;;
84121;SDS011;74217;51.106;17.084;2024-01-15T11:45:02;10.50;;;5.45;;
84121;SDS011;74217;51.106;17.084;2024-01-15T11:50:53;6.80;;;4.28;;
84121;SDS011;74217;51.106;17.084;2024-01-15T11:53:43;7.75;;;3.58;;
84121;SDS011;74217;51.106;17.084;2024-01-15T11:56:34;9.93;;;4.68;;
84121;SDS011;74217;51.106;17.084;2024-01-15T11:59:20;6.15;;;4.43;;
84121;SDS011;74217;51.106;17.084;2024-01-15T12:02:09;4.68;;;3.45;;
84121;SDS011;74217;51.106;17.084;2024-01-15T12:04:57;5.55;;;4.43;;
84121;SDS011;74217;51.106;17.084;2024-01-15T12:07:47;7.03;;;4.90;;
84121;SDS011;74217;51.106;17.084;2024-01-15T12:10:33;6.38;;;4.63;;
84121;SDS011;74217;51.106;17.084;2024-01-15T12:13:24;8.90;;;3.42;;
84121;SDS011;74217;51.106;17.084;2024-01-15T12:16:09;7.88;;;4.90;;
84121;SDS011;74217;51.106;17.084;2024-01-15T12:18:58;5.78;;;3.78;;
84121;SDS011;74217;51.106;17.084;2024-01-15T12:21:44;4.82;;;3.25;;
84121;SDS011;74217;51.106;17.084;2024-01-15T12:24:33;6.47;;;4.30;;
84121;SDS011;74217;51.106;17.084;2024-01-15T12:27:18;7.45;;;4.03;;
84121;SDS011;74217;51.106;17.084;2024-01-15T12:30:09;8.90;;;4.50;;
84121;SDS011;74217;51.106;17.084;2024-01-15T12:32:56;6.88;;;4.22;;
84121;SDS011;74217;51.106;17.084;2024-01-15T12:35:47;6.90;;;3.92;;
84121;SDS011;74217;51.106;17.084;2024-01-15T12:38:32;5.40;;;3.88;;
84121;SDS011;74217;51.106;17.084;2024-01-15T12:41:17;5.75;;;4.90;;
84121;SDS011;74217;51.106;17.084;2024-01-15T12:44:02;5.95;;;4.00;;
84121;SDS011;74217;51.106;17.084;2024-01-15T12:46:49;9.57;;;7.22;;
84121;SDS011;74217;51.106;17.084;2024-01-15T12:49:36;7.57;;;5.32;;
84121;SDS011;74217;51.106;17.084;2024-01-15T12:52:29;6.97;;;4.93;;
84121;SDS011;74217;51.106;17.084;2024-01-15T12:55:14;4.65;;;3.88;;
84121;SDS011;74217;51.106;17.084;2024-01-15T12:58:03;6.93;;;4.05;;
84121;SDS011;74217;51.106;17.084;2024-01-15T13:00:48;6.10;;;4.63;;
84121;SDS011;74217;51.106;17.084;2024-01-15T13:03:38;10.30;;;4.10;;
84121;SDS011;74217;51.106;17.084;2024-01-15T13:06:23;7.68;;;4.93;;
84121;SDS011;74217;51.106;17.084;2024-01-15T13:09:12;8.27;;;4.53;;
84121;SDS011;74217;51.106;17.084;2024-01-15T13:11:57;7.65;;;4.80;;
84121;SDS011;74217;51.106;17.084;2024-01-15T13:14:46;7.28;;;4.97;;
84121;SDS011;74217;51.106;17.084;2024-01-15T13:17:32;7.93;;;5.18;;
84121;SDS011;74217;51.106;17.084;2024-01-15T13:20:23;4.55;;;4.15;;
84121;SDS011;74217;51.106;17.084;2024-01-15T13:23:08;8.45;;;5.32;;
84121;SDS011;74217;51.106;17.084;2024-01-15T13:25:58;7.22;;;4.50;;
84121;SDS011;74217;51.106;17.084;2024-01-15T13:28:43;6.53;;;3.97;;
84121;SDS011;74217;51.106;17.084;2024-01-15T13:31:32;6.15;;;4.50;;
84121;SDS011;74217;51.106;17.084;2024-01-15T13:34:17;6.40;;;4.47;;
84121;SDS011;74217;51.106;17.084;2024-01-15T13:37:08;4.95;;;3.67;;
84121;SDS011;74217;51.106;17.084;2024-01-15T13:39:54;7.03;;;4.13;;
84121;SDS011;74217;51.106;17.084;2024-01-15T13:42:43;6.53;;;4.53;;
84121;SDS011;74217;51.106;17.084;2024-01-15T13:45:28;6.50;;;4.70;;
84121;SDS011;74217;51.106;17.084;2024-01-15T13:48:20;8.30;;;4.30;;
84121;SDS011;74217;51.106;17.084;2024-01-15T13:51:06;5.90;;;4.18;;
84121;SDS011;74217;51.106;17.084;2024-01-15T13:53:57;8.30;;;4.75;;
84121;SDS011;74217;51.106;17.084;2024-01-15T13:56:42;5.80;;;4.90;;
84121;SDS011;74217;51.106;17.084;2024-01-15T13:59:33;5.13;;;3.55;;
84121;SDS011;74217;51.106;17.084;2024-01-15T14:02:18;5.85;;;5.25;;
84121;SDS011;74217;51.106;17.084;2024-01-15T14:05:11;8.20;;;3.85;;
84121;SDS011;74217;51.106;17.084;2024-01-15T14:07:59;7.82;;;4.82;;
84121;SDS011;74217;51.106;17.084;2024-01-15T14:10:47;8.23;;;5.88;;
84121;SDS011;74217;51.106;17.084;2024-01-15T14:13:35;7.13;;;3.95;;
84121;SDS011;74217;51.106;17.084;2024-01-15T14:16:22;7.75;;;4.55;;
84121;SDS011;74217;51.106;17.084;2024-01-15T14:19:09;8.00;;;3.80;;
84121;SDS011;74217;51.106;17.084;2024-01-15T14:21:56;6.78;;;5.53;;
84121;SDS011;74217;51.106;17.084;2024-01-15T14:24:42;6.95;;;5.13;;
84121;SDS011;74217;51.106;17.084;2024-01-15T14:27:31;7.13;;;4.32;;
84121;SDS011;74217;51.106;17.084;2024-01-15T14:30:19;5.40;;;4.78;;
84121;SDS011;74217;51.106;17.084;2024-01-15T14:33:05;6.90;;;4.28;;
84121;SDS011;74217;51.106;17.084;2024-01-15T14:35:53;5.95;;;3.45;;
84121;SDS011;74217;51.106;17.084;2024-01-15T14:38:40;7.13;;;4.40;;
84121;SDS011;74217;51.106;17.084;2024-01-15T14:41:27;6.38;;;4.55;;
84121;SDS011;74217;51.106;17.084;2024-01-15T14:44:14;8.73;;;5.55;;
84121;SDS011;74217;51.106;17.084;2024-01-15T14:47:01;7.45;;;6.18;;
84121;SDS011;74217;51.106;17.084;2024-01-15T14:49:48;7.07;;;4.35;;
84121;SDS011;74217;51.106;17.084;2024-01-15T14:52:35;10.32;;;6.65;;
84121;SDS011;74217;51.106;17.084;2024-01-15T14:55:25;11.68;;;5.75;;
84121;SDS011;74217;51.106;17.084;2024-01-15T14:58:13;11.15;;;5.65;;
84121;SDS011;74217;51.106;17.084;2024-01-15T15:01:02;10.73;;;6.10;;
84121;SDS011;74217;51.106;17.084;2024-01-15T15:03:50;12.48;;;6.82;;
84121;SDS011;74217;51.106;17.084;2024-01-15T15:09:21;12.35;;;7.10;;
84121;SDS011;74217;51.106;17.084;2024-01-15T15:12:08;11.02;;;6.35;;
84121;SDS011;74217;51.106;17.084;2024-01-15T15:14:55;8.15;;;6.60;;
84121;SDS011;74217;51.106;17.084;2024-01-15T15:17:44;10.68;;;6.00;;
84121;SDS011;74217;51.106;17.084;2024-01-15T15:20:32;11.85;;;6.57;;
84121;SDS011;74217;51.106;17.084;2024-01-15T15:26:06;11.70;;;6.40;;
84121;SDS011;74217;51.106;17.084;2024-01-15T15:28:53;15.57;;;6.55;;
84121;SDS011;74217;51.106;17.084;2024-01-15T15:31:40;11.45;;;5.95;;
84121;SDS011;74217;51.106;17.084;2024-01-15T15:37:14;8.75;;;5.90;;
84121;SDS011;74217;51.106;17.084;2024-01-15T15:40:01;9.18;;;6.55;;
84121;SDS011;74217;51.106;17.084;2024-01-15T15:42:49;14.13;;;8.00;;
84121;SDS011;74217;51.106;17.084;2024-01-15T15:45:36;10.85;;;7.10;;
84121;SDS011;74217;51.106;17.084;2024-01-15T15:48:21;12.80;;;6.15;;
84121;SDS011;74217;51.106;17.084;2024-01-15T15:51:10;13.88;;;7.43;;
84121;SDS011;74217;51.106;17.084;2024-01-15T15:53:57;12.73;;;7.15;;
84121;SDS011;74217;51.106;17.084;2024-01-15T15:56:45;16.08;;;6.35;;
84121;SDS011;74217;51.106;17.084;2024-01-15T15:59:36;9.52;;;7.05;;
84121;SDS011;74217;51.106;17.084;2024-01-15T16:02:25;10.88;;;6.32;;
84121;SDS011;74217;51.106;17.084;2024-01-15T16:05:13;12.88;;;5.93;;
84121;SDS011;74217;51.106;17.084;2024-01-15T16:07:59;11.77;;;6.38;;
84121;SDS011;74217;51.106;17.084;2024-01-15T16:10:47;9.13;;;5.28;;
84121;SDS011;74217;51.106;17.084;2024-01-15T16:13:35;8.82;;;6.05;;
84121;SDS011;74217;51.106;17.084;2024-01-15T16:16:23;10.80;;;7.65;;
84121;SDS011;74217;51.106;17.084;2024-01-15T16:19:11;12.70;;;6.43;;
84121;SDS011;74217;51.106;17.084;2024-01-15T16:21:58;7.18;;;4.65;;
84121;SDS011;74217;51.106;17.084;2024-01-15T16:24:45;10.98;;;5.68;;
84121;SDS011;74217;51.106;17.084;2024-01-15T16:30:18;8.85;;;5.20;;
84121;SDS011;74217;51.106;17.084;2024-01-15T16:33:06;9.15;;;6.35;;
84121;SDS011;74217;51.106;17.084;2024-01-15T16:35:53;12.63;;;6.88;;
84121;SDS011;74217;51.106;17.084;2024-01-15T16:38:40;9.90;;;6.40;;
84121;SDS011;74217;51.106;17.084;2024-01-15T16:41:29;10.35;;;7.22;;
84121;SDS011;74217;51.106;17.084;2024-01-15T16:44:18;9.80;;;5.70;;
84121;SDS011;74217;51.106;17.084;2024-01-15T16:47:05;9.88;;;5.55;;
84121;SDS011;74217;51.106;17.084;2024-01-15T16:49:52;9.30;;;6.40;;
84121;SDS011;74217;51.106;17.084;2024-01-15T16:52:38;10.88;;;6.20;;